Latest Weather Observations for Low Head

IDT60801

Issued at 10:35 pm EST Wednesday 30 July 2014 (issued every 30 minutes, with the page automatically refreshed every 10 minutes)

About weather observations | Map of weather stations | Latest weather observations for TAS | Other Formats
Station Details ID: 091293 Name: LOW HEAD Lat: -41.05 Lon: 146.79 Height: 3.0 m
Data from the previous 72 hours. | See also: Recent months at Low Head
Date/Time
EST
Temp
°C
App
Temp
°C
Dew
Point
Rel
Hum
%
Delta-T
°C
Wind Press
QNH
hPa
Press
MSL
hPa
Rain
since 9 am
mm
Dir
 
Spd
km/h
Gust
km/h
Spd
kts
Gust
kts
30/10:32pm 13.5 2.9 10.6 82 1.5 NW 57 76 31 41 998.9 - 3.8
30/10:30pm 13.5 2.5 10.6 82 1.5 NW 59 76 32 41 998.9 - 3.8
30/10:12pm 13.3 3.8 11.0 86 1.2 NW 52 70 28 38 999.1 - 3.8
30/10:00pm 13.2 3.3 11.1 87 1.1 NW 54 65 29 35 999.4 - 3.6
30/09:30pm 13.0 4.2 10.9 87 1.1 NW 48 61 26 33 999.7 - 3.6
30/09:00pm 12.3 2.6 11.7 96 0.3 WNW 54 72 29 39 1000.1 1000.2 3.4
30/08:49pm 13.5 5.4 12.2 92 0.7 NNW 46 65 25 35 999.6 - 0.4
30/08:30pm 14.0 5.5 12.0 88 1.1 NW 48 59 26 32 999.9 - 0.2
30/08:00pm 14.0 5.1 11.8 86 1.2 NW 50 65 27 35 1000.4 - 0.2
30/07:30pm 13.8 6.5 11.6 86 1.2 NW 41 52 22 28 1000.2 - 0.2
30/07:00pm 13.8 5.7 11.9 88 1.0 NW 46 57 25 31 1000.6 - 0.2
30/06:30pm 13.7 5.2 12.0 89 0.9 NW 48 57 26 31 1000.6 - 0.2
30/06:00pm 13.8 5.3 11.9 88 1.0 WNW 48 59 26 32 1000.8 1000.8 0.2
30/05:30pm 13.8 4.9 12.0 89 1.0 NW 50 65 27 35 1000.5 - 0.2
30/05:00pm 13.9 4.6 11.9 88 1.1 NW 52 65 28 35 1000.3 - 0.2
30/04:49pm 13.9 5.4 12.1 89 1.0 NW 48 67 26 36 1000.1 - 0.2
30/04:30pm 13.9 5.0 11.9 88 1.1 NW 50 59 27 32 1000.0 - 0.2
30/04:00pm 14.2 5.3 12.0 87 1.2 NW 50 61 27 33 999.8 - 0.2
30/03:30pm 14.3 4.3 12.1 87 1.2 NW 56 74 30 40 1000.1 - 0.2
30/03:29pm 14.2 4.2 12.2 88 1.1 NW 56 74 30 40 1000.1 - 0.2
30/03:00pm 14.2 4.1 11.8 85 1.3 WNW 56 70 30 38 1000.1 1000.1 0.2
30/02:30pm 13.7 3.2 12.2 91 0.8 NW 59 91 32 49 1000.4 - 0.2
30/02:12pm 13.7 4.4 11.8 88 1.0 NW 52 74 28 40 1000.4 - 0.2
30/02:00pm 13.9 5.3 11.7 86 1.2 NW 48 61 26 33 1000.6 - 0.2
30/01:30pm 14.0 5.3 11.4 84 1.4 NW 48 61 26 33 1000.8 - 0.2
30/01:00pm 13.8 5.1 11.4 85 1.3 WNW 48 59 26 32 1001.4 - 0.2
30/12:30pm 13.2 3.7 11.3 88 1.0 WNW 52 65 28 35 1002.0 - 0.2
30/12:00pm 13.6 5.3 11.3 86 1.2 NW 46 59 25 32 1002.5 1002.6 0.0
30/11:30am 14.1 5.8 11.3 83 1.5 NW 46 59 25 32 1003.0 - 0.0
30/11:00am 13.9 5.6 11.5 85 1.3 NW 46 57 25 31 1003.4 - 0.0
30/10:30am 13.5 4.3 10.8 84 1.4 WNW 50 61 27 33 1003.7 - 0.0
30/10:00am 13.1 4.2 10.6 85 1.3 NW 48 57 26 31 1003.6 - 0.0
30/09:30am 13.1 3.7 10.2 82 1.5 WNW 50 63 27 34 1003.7 - 0.0
30/09:00am 13.0 5.1 10.9 87 1.1 NW 43 57 23 31 1003.4 1003.4 12.4
30/08:30am 12.8 4.0 10.9 88 1.0 NW 48 59 26 32 1003.3 - 12.4
30/08:00am 12.7 5.7 10.0 84 1.4 NW 37 43 20 23 1003.3 - 12.4
30/07:30am 12.6 4.7 9.5 81 1.6 WNW 41 50 22 27 1003.2 - 12.4
30/07:00am 12.5 4.0 9.1 80 1.7 WNW 44 54 24 29 1003.1 - 12.4
30/06:30am 12.5 4.0 9.1 80 1.7 WNW 44 56 24 30 1003.2 - 12.4
30/06:00am 12.4 4.0 9.0 80 1.7 WNW 43 52 23 28 1003.1 1003.1 12.4
30/05:30am 12.3 3.8 8.5 77 1.9 WNW 43 54 23 29 1002.8 - 12.4
30/05:00am 12.2 2.8 8.8 80 1.7 W 48 57 26 31 1002.4 - 12.4
30/04:30am 12.2 2.8 8.8 80 1.7 W 48 59 26 32 1002.2 - 12.4
30/04:00am 12.4 1.8 8.6 77 1.9 W 54 65 29 35 1001.6 - 12.4
30/03:30am 12.5 0.7 8.9 79 1.8 W 61 80 33 43 1001.2 - 12.4
30/03:21am 12.6 0.7 8.6 76 2.0 W 61 80 33 43 1001.0 - 12.4
30/03:00am 12.7 0.4 8.7 76 2.0 W 63 76 34 41 1000.7 1000.8 12.4
30/02:31am 12.8 0.5 8.6 75 2.1 W 63 82 34 44 1000.4 - 12.4
30/02:30am 12.7 0.4 8.7 76 2.0 W 63 80 34 43 1000.4 - 12.4
30/02:16am 12.8 1.7 8.8 76 2.0 W 57 76 31 41 1000.2 - 12.4
30/02:00am 13.0 0.7 8.4 73 2.3 W 63 76 34 41 999.8 - 12.4
30/01:30am 13.0 0.3 8.6 74 2.2 W 65 83 35 45 999.3 - 12.4
30/01:25am 13.1 0.8 8.5 73 2.3 W 63 83 34 45 999.1 - 12.4
30/01:00am 12.9 1.8 8.7 75 2.1 W 57 72 31 39 998.9 - 12.4
30/12:30am 12.7 0.4 8.7 76 2.0 W 63 76 34 41 998.9 - 12.4
30/12:00am 13.1 -1.0 8.1 71 2.5 W 72 95 39 51 998.1 998.1 12.4
 
Date/Time
EST
Temp
°C
App
Temp
°C
Dew
Point
Rel
Hum
%
Delta-T
°C
Wind Press
QNH
hPa
Press
MSL
hPa
Rain
since 9 am
mm
Dir
 
Spd
km/h
Gust
km/h
Spd
kts
Gust
kts
29/11:53pm 13.1 -1.4 8.1 71 2.5 W 74 95 40 51 997.9 - 12.4
29/11:52pm 13.2 -2.2 7.7 69 2.7 W 78 91 42 49 997.9 - 12.4
29/11:30pm 12.8 2.6 8.4 74 2.2 W 52 78 28 42 997.8 - 12.4
29/11:28pm 12.7 2.9 8.7 76 2.0 W 50 69 27 37 997.8 - 12.4
29/11:00pm 12.0 1.0 9.2 83 1.4 W 57 69 31 37 997.9 - 12.4
29/10:30pm 11.8 -0.7 9.2 84 1.3 W 65 78 35 42 997.8 - 12.2
29/10:22pm 11.8 -1.2 8.6 81 1.6 W 67 85 36 46 997.5 - 12.0
29/10:10pm 12.4 -1.3 8.4 76 2.0 W 70 83 38 45 997.6 - 11.8
29/10:00pm 12.8 3.3 8.4 74 2.2 W 48 69 26 37 997.5 - 11.8
29/09:59pm 12.6 3.3 9.0 79 1.8 W 48 69 26 37 997.6 - 11.8
29/09:30pm 12.3 1.3 9.1 81 1.6 W 57 74 31 40 997.4 - 11.8
29/09:06pm 11.7 -1.0 8.5 81 1.6 W 65 83 35 45 996.7 - 11.8
29/09:00pm 11.9 -0.7 8.9 82 1.5 W 65 82 35 44 996.7 996.7 11.8
29/08:31pm 13.0 0.8 9.1 77 2.0 WNW 63 82 34 44 996.2 - 11.8
29/08:30pm 13.0 0.4 8.9 76 2.1 WNW 65 82 35 44 996.2 - 11.8
29/08:00pm 12.9 0.4 9.4 79 1.8 WNW 65 83 35 45 995.7 - 11.8
29/07:34pm 13.4 1.7 9.5 77 2.0 WNW 61 80 33 43 995.6 - 11.8
29/07:30pm 13.5 2.2 9.6 77 2.0 WNW 59 76 32 41 995.4 - 11.8
29/07:00pm 13.6 -0.9 8.0 69 2.8 WNW 74 95 40 51 994.6 - 11.8
29/06:30pm 13.0 -1.6 10.5 85 1.3 WNW 78 104 42 56 994.2 - 11.8
29/06:20pm 13.6 -1.9 10.2 80 1.8 WNW 82 100 44 54 993.9 - 11.8
29/06:18pm 13.7 -2.4 9.9 78 2.0 WNW 85 100 46 54 993.7 - 11.8
29/06:00pm 13.0 1.1 11.3 89 0.9 WNW 65 87 35 47 993.4 993.4 11.6
29/05:30pm 12.5 1.4 11.4 93 0.6 WNW 61 80 33 43 993.3 - 9.8
29/05:01pm 13.6 2.8 11.2 85 1.3 WNW 59 78 32 42 993.5 - 7.4
29/05:00pm 13.6 2.4 11.2 85 1.3 WNW 61 78 33 42 993.6 - 7.4
29/04:30pm 13.9 1.0 10.7 81 1.7 NW 69 93 37 50 993.3 - 7.4
29/04:00pm 14.0 2.6 10.6 80 1.8 NW 61 82 33 44 993.6 - 7.4
29/03:47pm 13.9 3.9 10.7 81 1.7 NW 54 78 29 42 993.8 - 7.4
29/03:30pm 13.6 4.0 10.8 83 1.5 NW 52 67 28 36 994.0 - 7.4
29/03:00pm 13.3 4.1 10.8 85 1.3 NW 50 61 27 33 994.6 994.7 7.4
29/02:30pm 13.2 4.1 9.9 80 1.7 WNW 48 59 26 32 995.1 - 7.4
29/02:09pm 13.1 3.1 9.4 78 1.9 WNW 52 70 28 38 995.3 - 7.4
29/02:00pm 13.1 2.3 9.2 77 2.0 WNW 56 72 30 39 995.3 - 7.4
29/01:54pm 12.9 2.9 9.4 79 1.8 WNW 52 72 28 39 995.3 - 7.4
29/01:30pm 12.8 3.1 9.1 78 1.9 WNW 50 61 27 33 995.6 - 7.4
29/01:00pm 12.9 1.5 7.4 69 2.7 W 57 72 31 39 995.8 - 7.4
29/12:49pm 12.6 2.1 9.0 79 1.8 W 54 72 29 39 995.9 - 7.4
29/12:40pm 12.8 0.9 10.1 84 1.4 W 63 74 34 40 995.8 - 7.4
29/12:30pm 13.4 3.0 11.3 87 1.1 NW 57 72 31 39 995.6 - 7.2
29/12:10pm 13.0 2.2 10.1 82 1.5 NW 57 76 31 41 995.5 - 7.2
29/12:00pm 13.2 2.3 10.9 86 1.2 NW 59 74 32 40 995.9 995.9 7.2
29/11:31am 12.7 1.8 10.8 88 1.0 NW 59 78 32 42 996.5 - 7.2
29/11:30am 12.7 1.4 10.8 88 1.0 NW 61 78 33 42 996.4 - 7.2
29/11:11am 12.8 3.5 11.7 93 0.6 NW 52 76 28 41 996.2 - 6.8
29/11:08am 11.9 3.8 10.9 94 0.5 WNW 44 83 24 45 996.5 - 6.8
29/11:03am 10.6 -1.6 10.2 97 0.2 WNW 65 83 35 45 996.6 - 6.6
29/11:00am 10.5 -2.2 10.1 97 0.2 WNW 67 83 36 45 996.6 - 6.0
29/10:53am 10.8 -2.5 9.2 90 0.8 WNW 69 87 37 47 997.0 - 3.6
29/10:30am 13.7 3.1 10.7 82 1.6 NW 57 80 31 43 997.0 - 2.2
29/10:00am 13.6 3.2 11.2 85 1.3 NNW 57 72 31 39 997.4 - 2.2
29/09:30am 13.6 1.6 11.2 85 1.3 NW 65 85 35 46 997.3 - 2.2
29/09:13am 13.1 3.0 11.6 91 0.8 WNW 56 76 30 41 997.4 - 2.2
29/09:08am 13.0 2.7 11.7 92 0.7 WNW 57 72 31 39 997.6 - 1.4
29/09:00am 13.0 1.5 11.5 91 0.8 NNW 63 83 34 45 997.5 997.6 18.8
29/08:31am 13.2 -0.2 10.9 86 1.2 NNW 72 91 39 49 996.9 - 17.8
29/08:30am 13.2 -0.2 10.9 86 1.2 NNW 72 89 39 48 997.0 - 17.8
29/08:00am 13.2 1.2 10.9 86 1.2 NNW 65 83 35 45 997.5 - 17.8
29/07:30am 13.2 0.7 10.7 85 1.3 NNW 67 85 36 46 997.6 - 17.8
29/07:00am 12.8 1.9 10.9 88 1.0 NNW 59 78 32 42 997.9 - 17.6
29/06:33am 12.4 1.6 11.1 92 0.7 NNW 59 78 32 42 998.7 - 16.4
29/06:30am 12.5 1.3 11.2 92 0.7 NNW 61 78 33 42 998.8 - 16.0
29/06:06am 12.9 2.3 10.8 87 1.1 NNW 57 76 31 41 998.8 - 15.2
29/06:00am 12.9 1.5 10.6 86 1.2 NNW 61 76 33 41 998.9 998.9 15.2
29/05:42am 12.8 2.2 10.7 87 1.1 NNW 57 76 31 41 999.0 - 15.2
29/05:30am 12.6 2.3 10.9 89 0.9 NNW 56 69 30 37 999.4 - 14.8
29/05:02am 12.6 2.3 11.1 91 0.8 NNW 56 76 30 41 999.7 - 14.4
29/05:00am 12.6 2.7 11.1 91 0.8 NNW 54 70 29 38 999.8 - 14.4
29/04:37am 12.7 4.0 11.4 92 0.7 NNW 48 67 26 36 1000.2 - 13.4
29/04:30am 12.7 5.4 11.4 92 0.7 N 41 56 22 30 1000.0 - 12.8
29/04:00am 12.9 4.9 11.0 88 1.0 NNW 44 52 24 28 1000.7 - 10.8
29/03:30am 12.7 4.2 10.8 88 1.0 NNW 46 57 25 31 1001.6 - 10.8
29/03:00am 12.9 3.8 10.0 82 1.5 NNW 48 56 26 30 1002.2 1002.3 10.6
29/02:30am 12.9 4.3 10.4 85 1.3 NW 46 56 25 30 1002.7 - 10.6
29/02:00am 12.9 3.8 9.8 81 1.6 NW 48 61 26 33 1003.3 - 10.6
29/01:30am 12.7 3.6 9.8 82 1.5 NW 48 57 26 31 1003.6 - 10.6
29/01:00am 11.6 4.7 10.2 91 0.7 WNW 37 46 20 25 1004.2 - 10.4
29/12:30am 11.0 3.3 10.0 93 0.5 WNW 41 52 22 28 1004.5 - 9.2
29/12:10am 12.6 4.6 11.1 91 0.8 NW 44 70 24 38 1004.7 - 5.8
29/12:00am 12.9 5.0 10.8 87 1.1 NW 43 50 23 27 1004.4 1004.5 5.4
 
Date/Time
EST
Temp
°C
App
Temp
°C
Dew
Point
Rel
Hum
%
Delta-T
°C
Wind Press
QNH
hPa
Press
MSL
hPa
Rain
since 9 am
mm
Dir
 
Spd
km/h
Gust
km/h
Spd
kts
Gust
kts
28/11:30pm 12.5 4.2 10.2 86 1.2 NNW 44 54 24 29 1004.9 - 5.4
28/11:00pm 12.6 6.1 10.5 87 1.1 NW 35 43 19 23 1005.2 - 5.2
28/10:30pm 12.4 7.1 11.3 93 0.6 NW 30 39 16 21 1005.5 - 5.2
28/10:00pm 12.4 5.7 10.9 90 0.8 NW 37 46 20 25 1005.9 - 4.4
28/09:44pm 12.4 7.4 10.9 90 0.8 NW 28 50 15 27 1006.1 - 3.8
28/09:30pm 12.1 7.1 10.8 92 0.7 NW 28 35 15 19 1006.1 - 3.6
28/09:00pm 12.4 5.7 9.7 83 1.4 NW 35 41 19 22 1006.4 1006.4 3.6
28/08:30pm 12.3 6.7 10.0 86 1.2 WNW 30 35 16 19 1006.7 - 3.6
28/08:00pm 12.2 4.7 9.6 84 1.3 WNW 39 46 21 25 1006.9 - 3.6
28/07:30pm 11.9 3.1 9.7 86 1.1 NW 46 56 25 30 1006.9 - 3.6
28/07:00pm 12.9 5.4 11.0 88 1.0 NW 41 48 22 26 1006.8 - 2.4
28/06:30pm 12.7 5.5 10.6 87 1.1 NW 39 46 21 25 1006.6 - 2.0
28/06:00pm 13.0 5.2 11.1 88 1.0 NW 43 50 23 27 1006.7 1006.7 2.0
28/05:30pm 13.1 5.6 10.8 86 1.2 NW 41 50 22 27 1006.1 - 2.0
28/05:00pm 13.3 6.3 11.2 87 1.1 NW 39 44 21 24 1006.8 - 2.0
28/04:30pm 13.3 6.3 11.2 87 1.1 NW 39 46 21 25 1006.8 - 2.0
28/04:00pm 13.3 6.7 11.4 88 1.0 NW 37 44 20 24 1006.6 - 2.0
28/03:30pm 13.5 7.2 11.2 86 1.2 NW 35 44 19 24 1006.8 - 2.0
28/03:00pm 13.8 6.8 11.2 84 1.4 NW 39 50 21 27 1007.1 1007.1 2.0
28/02:30pm 13.6 5.6 11.1 85 1.3 NW 44 54 24 29 1007.3 - 2.0
28/02:00pm 12.0 4.3 7.2 72 2.3 WNW 37 46 20 25 1007.6 - 1.8
28/01:46pm 12.2 5.1 9.4 83 1.4 WNW 37 56 20 30 1007.8 - 1.8
28/01:30pm 11.4 2.0 8.6 83 1.4 W 48 59 26 32 1007.9 - 1.6
28/01:19pm 12.0 1.1 9.0 82 1.5 W 56 61 30 33 1008.1 - 1.4
28/01:00pm 13.6 5.7 10.9 84 1.4 NW 43 52 23 28 1007.9 - 1.2
28/12:30pm 13.7 6.2 10.9 83 1.5 NNW 41 52 22 28 1008.3 - 1.2
28/12:00pm 13.6 6.5 10.9 84 1.4 NW 39 46 21 25 1008.9 1008.9 1.2
28/11:30am 13.2 6.5 10.9 86 1.2 NW 37 43 20 23 1009.3 - 1.2
28/11:00am 13.5 7.6 11.0 85 1.3 NW 33 41 18 22 1009.7 - 1.2
28/10:30am 12.5 6.3 10.2 86 1.2 NW 33 41 18 22 1010.0 - 1.2
28/10:00am 12.0 6.5 10.5 90 0.8 NW 30 39 16 21 1010.1 - 1.2
28/09:30am 11.6 4.9 9.6 87 1.0 WNW 35 43 19 23 1010.1 - 1.0
28/09:00am 11.3 3.4 9.3 87 1.0 WNW 41 48 22 26 1010.5 1010.5 2.6
28/08:30am 11.8 4.2 9.2 84 1.3 NW 39 50 21 27 1010.1 - 0.4
28/08:00am 12.9 4.9 10.6 86 1.2 WNW 43 57 23 31 1010.3 - 0.2
28/07:30am 13.5 5.5 10.4 81 1.6 NNW 43 50 23 27 1010.1 - 0.0
28/07:00am 13.3 6.1 10.6 84 1.4 NW 39 44 21 24 1010.4 - 0.0
28/06:30am 13.3 6.4 10.4 82 1.5 NW 37 44 20 24 1010.5 - 0.0
28/06:00am 13.2 6.4 10.7 85 1.3 NW 37 43 20 23 1010.1 1010.1 0.0
28/05:30am 13.2 6.0 10.5 84 1.4 NW 39 46 21 25 1010.2 - 0.0
28/05:00am 13.1 6.6 10.4 84 1.4 NW 35 44 19 24 1010.3 - 0.0
28/04:30am 13.2 5.9 10.3 82 1.5 NW 39 48 21 26 1010.6 - 0.0
28/04:00am 13.3 6.0 10.2 81 1.6 NW 39 46 21 25 1011.0 - 0.0
28/03:30am 13.3 6.8 10.2 81 1.6 NW 35 46 19 25 1011.2 - 0.0
28/03:00am 13.2 5.9 10.3 82 1.5 NW 39 48 21 26 1011.7 1011.7 0.0
28/02:30am 13.2 6.3 10.3 82 1.5 NW 37 44 20 24 1012.1 - 0.0
28/02:00am 13.2 7.3 10.3 82 1.5 NW 32 41 17 22 1012.5 - 0.0
28/01:30am 13.2 7.1 10.5 84 1.4 NW 33 39 18 21 1012.6 - 0.0
28/01:00am 13.2 7.4 10.7 85 1.3 NW 32 37 17 20 1012.9 - 0.0
28/12:30am 13.2 7.1 10.5 84 1.4 NW 33 39 18 21 1013.4 - 0.0
28/12:00am 13.2 7.1 10.5 84 1.4 NW 33 46 18 25 1013.7 1013.7 0.0
 
Date/Time
EST
Temp
°C
App
Temp
°C
Dew
Point
Rel
Hum
%
Delta-T
°C
Wind Press
QNH
hPa
Press
MSL
hPa
Rain
since 9 am
mm
Dir
 
Spd
km/h
Gust
km/h
Spd
kts
Gust
kts
27/11:30pm 13.2 6.9 10.9 86 1.2 NW 35 43 19 23 1014.0 - 0.0
27/11:00pm 13.2 6.9 10.9 86 1.2 NNW 35 43 19 23 1014.3 - 0.0

Other Formats:

Comma delimited format used in spreadsheet applications
http://www.bom.gov.au/fwo/IDT60801/IDT60801.95964.axf

JavaScript Object Notation format (JSON) in row-major order
http://www.bom.gov.au/fwo/IDT60801/IDT60801.95964.json